X  Close Metar Aviation Weather Data     EGHH Bournemouth Airport
Temperature
6°C Temperature
4°C Dewpoint
87% Humidity



Wind
5 MPH
8 KM/H
2 M/S
4 KTS



250°
WSW
Current Conditions

Clear Clear
Pressure 1018.92 (hPa) - 30.09 (inHg)
Visibility 6.2 (mile) - 10 (km)
Airport
Airport-code EGHH

Location: Bournemouth Airport
Distance: 20 (mi)

Metar:
EGHH 212150Z 25004KT CAVOK 06/04 Q1019

Time: 21-10-2021 22:50 BST